Time;durP1;ratioP1;P1;durP2;ratioP2;P2;SDS_P1;SDS_P2;PMS_P1;PMS_P2;Temp;Humidity;BMP_temperature;BMP_pressure;BME280_temperature;BME280_humidity;BME280_pressure;Samples;Min_cycle;Max_cycle;Signal;HPM_P1;HPM_P2
2023/09/20 00:04:21;;;;;;;9.07;2.58;;;18.40;1.00;;;;;;20522719;28;20122;-42
2023/09/20 00:14:22;;;;;;;7.72;2.70;;;18.50;1.00;;;;;;20530061;28;20867;-42
2023/09/20 00:24:22;;;;;;;8.32;2.45;;;18.50;1.00;;;;;;20537507;28;20036;-43
2023/09/20 00:34:23;;;;;;;7.32;2.28;;;18.50;1.00;;;;;;20531780;28;20502;-43
2023/09/20 00:44:25;;;;;;;10.82;2.85;;;18.40;1.00;;;;;;20535771;28;20379;-42
2023/09/20 00:54:26;;;;;;;7.18;2.33;;;18.40;1.00;;;;;;20534105;28;20460;-43
2023/09/20 01:04:28;;;;;;;6.13;2.17;;;18.20;1.00;;;;;;20528652;28;20422;-42
2023/09/20 01:14:28;;;;;;;9.93;2.80;;;18.00;1.00;;;;;;20532175;28;20133;-42
2023/09/20 01:24:30;;;;;;;7.28;2.95;;;17.90;1.00;;;;;;20530841;28;20375;-43
2023/09/20 01:34:31;;;;;;;6.35;2.50;;;17.90;1.00;;;;;;20516444;28;20049;-43
2023/09/20 01:44:37;;;;;;;9.65;3.17;;;17.70;1.00;;;;;;20524543;28;20030;-43
2023/09/20 01:54:37;;;;;;;10.63;3.47;;;17.70;1.00;;;;;;20526082;28;20035;-43
2023/09/20 02:04:39;;;;;;;10.57;3.17;;;17.70;1.00;;;;;;20520978;28;20098;-42
2023/09/20 02:14:41;;;;;;;11.75;3.38;;;17.70;1.00;;;;;;20526427;28;20038;-42
2023/09/20 02:24:42;;;;;;;8.25;3.08;;;17.80;1.00;;;;;;20530981;28;20470;-42
2023/09/20 02:34:43;;;;;;;7.63;3.03;;;17.90;1.00;;;;;;20531490;28;20066;-43
2023/09/20 02:44:47;;;;;;;9.05;3.00;;;17.90;1.00;;;;;;20529688;28;20038;-43
2023/09/20 02:54:48;;;;;;;7.53;3.10;;;17.90;1.00;;;;;;20521254;28;20486;-43
2023/09/20 03:04:53;;;;;;;10.50;3.22;;;17.80;1.00;;;;;;20526965;28;20043;-42
2023/09/20 03:14:53;;;;;;;11.88;3.60;;;17.80;1.00;;;;;;20517819;28;20077;-43
2023/09/20 03:24:54;;;;;;;8.00;3.00;;;17.60;1.00;;;;;;20518369;28;20736;-42
2023/09/20 03:34:55;;;;;;;10.32;2.85;;;17.60;1.00;;;;;;20527977;28;20371;-43
2023/09/20 03:44:55;;;;;;;6.47;2.70;;;17.50;1.00;;;;;;20519616;28;20508;-43
2023/09/20 03:54:57;;;;;;;9.95;3.05;;;17.50;1.00;;;;;;20511677;28;20344;-43
2023/09/20 04:05:03;;;;;;;7.50;2.58;;;17.40;1.00;;;;;;20520783;28;20030;-43
2023/09/20 04:15:07;;;;;;;8.23;2.95;;;17.60;1.00;;;;;;20520965;28;20043;-43
2023/09/20 04:25:13;;;;;;;5.47;2.17;;;17.60;1.00;;;;;;20537647;28;20058;-42
2023/09/20 04:35:13;;;;;;;7.65;2.70;;;17.60;1.00;;;;;;20525989;28;20414;-43
2023/09/20 04:45:14;;;;;;;8.25;2.38;;;17.60;1.00;;;;;;20528493;28;20038;-42
2023/09/20 04:55:15;;;;;;;7.88;2.40;;;17.60;1.00;;;;;;20532435;28;20053;-43
2023/09/20 05:05:16;;;;;;;7.53;2.50;;;17.60;1.00;;;;;;20532531;28;20059;-43
2023/09/20 05:15:17;;;;;;;7.82;2.47;;;17.50;1.00;;;;;;20527781;28;20135;-43
2023/09/20 05:25:19;;;;;;;6.38;2.35;;;17.50;1.00;;;;;;20529709;28;20076;-43
2023/09/20 05:35:20;;;;;;;5.50;2.58;;;17.40;1.00;;;;;;20537822;28;20495;-42
2023/09/20 05:45:23;;;;;;;6.97;2.58;;;17.40;1.00;;;;;;20546670;28;20437;-43
2023/09/20 05:55:25;;;;;;;9.20;2.80;;;17.40;1.00;;;;;;20549603;28;20066;-42
2023/09/20 06:05:26;;;;;;;5.70;3.15;;;17.40;1.00;;;;;;20552268;28;20046;-42
2023/09/20 06:15:27;;;;;;;8.32;4.50;;;17.40;1.00;;;;;;20553597;28;20038;-42
2023/09/20 06:25:29;;;;;;;8.55;2.75;;;17.50;1.00;;;;;;20541432;28;20586;-43
2023/09/20 06:35:30;;;;;;;8.02;3.03;;;17.40;1.00;;;;;;20542854;28;20051;-42
2023/09/20 06:45:32;;;;;;;7.43;3.40;;;17.40;1.00;;;;;;20550951;28;20053;-42
2023/09/20 06:55:33;;;;;;;6.70;2.88;;;17.40;1.00;;;;;;20571059;28;20580;-42
2023/09/20 07:05:34;;;;;;;7.22;2.80;;;17.50;1.00;;;;;;20581688;28;20113;-42
2023/09/20 07:15:34;;;;;;;7.13;3.97;;;17.50;1.00;;;;;;20577224;28;20510;-42
2023/09/20 07:25:37;;;;;;;5.45;3.20;;;17.60;1.00;;;;;;20580820;28;20648;-42
2023/09/20 07:35:47;;;;;;;5.88;2.92;;;17.60;1.00;;;;;;20579738;28;20043;-42
2023/09/20 07:45:49;;;;;;;6.30;2.72;;;17.60;1.00;;;;;;20580195;28;20149;-42
2023/09/20 07:56:03;;;;;;;5.30;2.97;;;17.70;1.00;;;;;;20579428;28;20487;-42
2023/09/20 08:06:09;;;;;;;7.10;3.50;;;17.70;1.00;;;;;;20580356;28;20499;-42
2023/09/20 08:16:10;;;;;;;6.22;3.40;;;17.70;1.00;;;;;;20576036;28;20038;-42
2023/09/20 09:07:30;;;;;;;5.97;2.97;;;17.90;1.00;;;;;;20588802;28;20034;-42
2023/09/20 09:17:38;;;;;;;4.28;2.25;;;18.00;1.00;;;;;;20589657;28;20049;-42
2023/09/20 09:27:40;;;;;;;6.88;2.60;;;18.10;1.00;;;;;;20591487;28;20034;-41
2023/09/20 09:37:43;;;;;;;7.32;2.92;;;18.10;1.00;;;;;;20587867;28;20055;-42
2023/09/20 09:47:44;;;;;;;6.15;3.08;;;18.10;1.00;;;;;;20588711;28;20431;-41
2023/09/20 09:57:44;;;;;;;6.65;3.17;;;18.10;1.00;;;;;;20586241;28;20077;-41
2023/09/20 10:07:48;;;;;;;5.80;3.13;;;18.20;1.00;;;;;;20587766;28;20034;-42
2023/09/20 10:17:52;;;;;;;5.22;2.78;;;18.20;1.00;;;;;;20586206;28;20162;-42
2023/09/20 10:27:53;;;;;;;8.50;2.85;;;18.40;1.00;;;;;;20590806;28;20089;-42
2023/09/20 10:38:09;;;;;;;8.20;3.05;;;18.50;1.00;;;;;;20584310;28;20058;-42
2023/09/20 10:48:13;;;;;;;9.07;3.10;;;18.70;1.00;;;;;;20585482;28;20410;-42
2023/09/20 10:58:14;;;;;;;7.95;3.13;;;18.90;1.00;;;;;;20583207;28;20057;-42
2023/09/20 11:08:15;;;;;;;5.18;2.30;;;19.20;1.00;;;;;;20581319;28;20073;-42
2023/09/20 11:18:19;;;;;;;8.55;3.10;;;19.40;1.00;;;;;;20583251;28;20050;-42
2023/09/20 11:28:20;;;;;;;6.00;2.63;;;19.60;1.00;;;;;;20578359;28;20035;-43
2023/09/20 11:38:22;;;;;;;5.50;2.60;;;19.90;1.00;;;;;;20582712;28;20564;-42
2023/09/20 11:48:22;;;;;;;4.35;2.47;;;20.30;1.00;;;;;;20579624;28;20491;-42
2023/09/20 11:58:23;;;;;;;5.30;2.75;;;20.60;1.00;;;;;;20580407;28;20065;-42
2023/09/20 12:08:30;;;;;;;3.90;2.33;;;20.70;1.00;;;;;;20582350;28;20402;-42
2023/09/20 12:18:31;;;;;;;;;;;20.80;1.00;;;;;;20581228;28;20073;-42
2023/09/20 12:28:32;;;;;;;6.60;2.55;;;21.40;1.00;;;;;;20580348;28;20041;-42
2023/09/20 12:38:32;;;;;;;6.20;2.78;;;21.40;1.00;;;;;;20576907;28;20130;-42
2023/09/20 12:48:36;;;;;;;5.60;2.60;;;21.40;1.00;;;;;;20579432;28;20042;-42
2023/09/20 12:58:37;;;;;;;5.25;2.70;;;21.30;1.00;;;;;;20579721;28;20050;-42
2023/09/20 13:08:38;;;;;;;5.20;2.60;;;21.20;1.00;;;;;;20583724;28;20463;-42
2023/09/20 13:18:38;;;;;;;5.95;2.55;;;21.30;1.00;;;;;;20588023;28;20125;-42
2023/09/20 13:28:41;;;;;;;5.28;3.30;;;21.50;1.00;;;;;;20591625;28;20043;-43
2023/09/20 13:38:42;;;;;;;5.25;3.05;;;21.80;1.00;;;;;;20588698;28;20046;-42
2023/09/20 13:48:45;;;;;;;5.85;2.67;;;21.80;1.00;;;;;;20586381;28;20053;-42
2023/09/20 13:58:46;;;;;;;6.03;2.88;;;22.20;1.00;;;;;;20588074;28;20166;-42
2023/09/20 14:08:47;;;;;;;5.30;2.40;;;22.60;1.00;;;;;;20588701;28;20104;-42
2023/09/20 14:18:49;;;;;;;3.72;2.35;;;22.50;1.00;;;;;;20584467;28;20074;-42
2023/09/20 14:28:49;;;;;;;4.55;2.15;;;21.90;1.00;;;;;;20586100;28;20038;-42
2023/09/20 14:38:50;;;;;;;4.38;1.92;;;21.70;1.00;;;;;;20584770;28;20058;-43
2023/09/20 14:48:51;;;;;;;6.07;2.00;;;21.70;1.00;;;;;;20572636;28;20057;-42
2023/09/20 14:58:51;;;;;;;4.03;1.88;;;21.60;1.00;;;;;;20555300;28;20042;-42
2023/09/20 15:08:52;;;;;;;3.90;1.80;;;21.50;1.00;;;;;;20540324;28;20475;-42
2023/09/20 15:18:55;;;;;;;3.85;1.75;;;21.50;1.00;;;;;;20543344;28;20056;-43
2023/09/20 15:28:55;;;;;;;3.80;1.70;;;21.40;1.00;;;;;;20539320;28;20094;-42
2023/09/20 15:38:56;;;;;;;5.97;1.85;;;21.20;1.00;;;;;;20530473;28;20090;-43
2023/09/20 15:48:57;;;;;;;5.95;1.90;;;21.10;1.00;;;;;;20530512;28;20043;-43
2023/09/20 15:58:58;;;;;;;3.53;1.52;;;21.20;1.00;;;;;;20516326;28;20186;-42
2023/09/20 16:08:59;;;;;;;2.25;1.10;;;21.20;1.00;;;;;;20498754;28;20070;-42
2023/09/20 16:18:59;;;;;;;2.70;1.47;;;21.20;1.00;;;;;;20539234;28;20050;-43
2023/09/20 16:29:00;;;;;;;3.78;1.60;;;21.00;1.00;;;;;;20553678;28;20494;-42
2023/09/20 16:39:00;;;;;;;4.13;1.65;;;20.90;1.00;;;;;;20550544;28;20409;-42
2023/09/20 16:49:01;;;;;;;4.50;1.70;;;20.90;1.00;;;;;;20515404;28;20511;-42
2023/09/20 16:59:01;;;;;;;5.53;1.58;;;21.00;1.00;;;;;;20513520;28;20042;-42
2023/09/20 17:09:05;;;;;;;4.75;2.00;;;20.90;1.00;;;;;;20516652;28;20126;-42
2023/09/20 17:19:06;;;;;;;3.35;1.70;;;20.80;1.00;;;;;;20496578;28;20045;-43
2023/09/20 17:29:06;;;;;;;4.95;1.38;;;20.80;1.00;;;;;;20525683;28;20039;-42
2023/09/20 17:39:07;;;;;;;3.08;1.52;;;20.60;1.00;;;;;;20517625;28;20141;-42
2023/09/20 17:49:10;;;;;;;6.85;1.88;;;20.50;1.00;;;;;;20531867;28;20039;-42
2023/09/20 17:59:13;;;;;;;3.53;1.83;;;20.40;1.00;;;;;;20520603;28;20042;-42
2023/09/20 18:09:14;;;;;;;5.93;1.90;;;20.20;1.00;;;;;;20527139;28;20045;-42
2023/09/20 18:19:17;;;;;;;3.47;1.70;;;20.20;1.00;;;;;;20506034;28;20490;-42
2023/09/20 18:29:18;;;;;;;3.83;1.90;;;20.20;1.00;;;;;;20494547;28;20047;-42
2023/09/20 18:39:19;;;;;;;4.53;2.10;;;20.10;1.00;;;;;;20505948;28;20051;-42
2023/09/20 18:49:19;;;;;;;4.90;1.95;;;20.00;1.00;;;;;;20534246;28;20501;-42
2023/09/20 18:59:20;;;;;;;4.18;1.80;;;20.00;1.00;;;;;;20533897;28;20296;-42
2023/09/20 19:09:24;;;;;;;4.30;1.75;;;20.00;1.00;;;;;;20524402;28;20038;-42
2023/09/20 19:19:24;;;;;;;6.00;1.80;;;20.00;1.00;;;;;;20529867;28;20078;-42
2023/09/20 19:29:25;;;;;;;7.80;1.73;;;20.00;1.00;;;;;;20529305;28;20042;-42
2023/09/20 19:39:25;;;;;;;3.78;1.80;;;20.00;1.00;;;;;;20527026;28;20051;-42
2023/09/20 19:49:29;;;;;;;3.15;1.70;;;19.90;1.00;;;;;;20539722;28;20066;-42
2023/09/20 19:59:29;;;;;;;3.60;1.83;;;19.90;1.00;;;;;;20533936;28;20119;-42
2023/09/20 20:09:30;;;;;;;4.15;1.77;;;19.80;1.00;;;;;;20535933;28;20042;-42
2023/09/20 20:19:32;;;;;;;5.05;2.20;;;19.80;1.00;;;;;;20553212;28;20129;-42
2023/09/20 20:29:34;;;;;;;5.47;2.10;;;19.70;1.00;;;;;;20552514;28;20616;-42
2023/09/20 20:39:35;;;;;;;4.75;1.70;;;19.80;1.00;;;;;;20551776;28;20065;-42
2023/09/20 20:49:36;;;;;;;3.67;1.60;;;19.80;1.00;;;;;;20548850;28;20117;-42
2023/09/20 20:59:37;;;;;;;2.90;1.55;;;19.80;1.00;;;;;;20540958;28;20066;-42
2023/09/20 21:09:38;;;;;;;4.32;1.85;;;19.80;1.00;;;;;;20531993;28;20679;-43
2023/09/20 21:19:39;;;;;;;3.80;1.95;;;19.90;1.00;;;;;;20556523;28;20058;-42
2023/09/20 21:29:41;;;;;;;3.00;1.60;;;19.80;1.00;;;;;;20545898;28;20035;-42
2023/09/20 21:39:41;;;;;;;6.57;2.13;;;19.70;1.00;;;;;;20544351;28;20166;-42
2023/09/20 21:49:42;;;;;;;4.78;1.88;;;19.70;1.00;;;;;;20515038;28;20035;-42
2023/09/20 21:59:43;;;;;;;5.03;1.95;;;19.60;1.00;;;;;;20530830;28;20043;-42
2023/09/20 22:09:45;;;;;;;3.70;1.70;;;19.70;1.00;;;;;;20535617;28;20046;-42
2023/09/20 22:19:45;;;;;;;3.63;1.65;;;19.70;1.00;;;;;;20536061;28;20145;-42
2023/09/20 22:29:46;;;;;;;3.42;1.88;;;19.80;1.00;;;;;;20536082;28;20042;-42
2023/09/20 22:39:46;;;;;;;4.07;1.95;;;19.70;1.00;;;;;;20550100;28;20043;-42
2023/09/20 22:49:53;;;;;;;3.25;1.75;;;19.70;1.00;;;;;;20548725;28;20030;-42
2023/09/20 22:59:54;;;;;;;10.40;2.40;;;19.60;1.00;;;;;;20548284;28;20118;-42
2023/09/20 23:09:55;;;;;;;3.90;1.88;;;19.60;1.00;;;;;;20551879;28;20050;-41
2023/09/20 23:20:04;;;;;;;5.07;2.00;;;19.60;1.00;;;;;;20544493;28;24198;-42
2023/09/20 23:30:06;;;;;;;5.75;2.17;;;19.60;1.00;;;;;;20549080;28;20042;-42
2023/09/20 23:40:11;;;;;;;3.40;1.88;;;19.60;1.00;;;;;;20544938;28;20162;-42
2023/09/20 23:50:12;;;;;;;4.50;2.10;;;19.70;1.00;;;;;;20549455;28;20589;-42
